sensor_id;sensor_type;location;lat;lon;timestamp;pressure;altitude;pressure_sealevel;temperature;humidity
43420;BME280;29017;51.514;-0.178;2023-01-29T00:01:21;102625.88;;;8.44;82.07
43420;BME280;29017;51.514;-0.178;2023-01-29T00:03:50;102624.84;;;8.46;82.54
43420;BME280;29017;51.514;-0.178;2023-01-29T00:06:17;102634.50;;;8.46;81.63
43420;BME280;29017;51.514;-0.178;2023-01-29T00:08:44;102631.22;;;8.42;81.08
43420;BME280;29017;51.514;-0.178;2023-01-29T00:11:12;102630.66;;;8.37;79.91
43420;BME280;29017;51.514;-0.178;2023-01-29T00:13:39;102635.78;;;8.39;80.67
43420;BME280;29017;51.514;-0.178;2023-01-29T00:16:07;102629.81;;;8.37;80.81
43420;BME280;29017;51.514;-0.178;2023-01-29T00:18:37;102630.75;;;8.36;81.24
43420;BME280;29017;51.514;-0.178;2023-01-29T00:21:07;102635.06;;;8.37;80.69
43420;BME280;29017;51.514;-0.178;2023-01-29T00:23:34;102628.69;;;8.41;81.57
43420;BME280;29017;51.514;-0.178;2023-01-29T00:26:01;102632.44;;;8.37;81.37
43420;BME280;29017;51.514;-0.178;2023-01-29T00:28:27;102626.16;;;8.39;81.86
43420;BME280;29017;51.514;-0.178;2023-01-29T00:30:54;102633.00;;;8.42;82.99
43420;BME280;29017;51.514;-0.178;2023-01-29T00:33:21;102628.69;;;8.41;83.07
43420;BME280;29017;51.514;-0.178;2023-01-29T00:35:48;102629.63;;;8.40;82.21
43420;BME280;29017;51.514;-0.178;2023-01-29T00:38:14;102629.53;;;8.41;81.52
43420;BME280;29017;51.514;-0.178;2023-01-29T00:40:41;102626.91;;;8.41;81.06
43420;BME280;29017;51.514;-0.178;2023-01-29T00:43:18;102633.84;;;8.42;81.61
43420;BME280;29017;51.514;-0.178;2023-01-29T00:45:55;102628.78;;;8.39;81.73
43420;BME280;29017;51.514;-0.178;2023-01-29T00:48:22;102627.94;;;8.39;81.71
43420;BME280;29017;51.514;-0.178;2023-01-29T00:50:49;102630.47;;;8.40;82.90
43420;BME280;29017;51.514;-0.178;2023-01-29T00:53:16;102633.16;;;8.39;83.20
43420;BME280;29017;51.514;-0.178;2023-01-29T00:55:43;102629.81;;;8.37;83.87
43420;BME280;29017;51.514;-0.178;2023-01-29T00:58:10;102626.28;;;8.38;84.61
43420;BME280;29017;51.514;-0.178;2023-01-29T01:00:36;102623.72;;;8.36;84.45
43420;BME280;29017;51.514;-0.178;2023-01-29T01:03:03;102620.19;;;8.37;83.99
43420;BME280;29017;51.514;-0.178;2023-01-29T01:05:31;102623.44;;;8.41;83.58
43420;BME280;29017;51.514;-0.178;2023-01-29T01:07:58;102615.56;;;8.41;83.84
43420;BME280;29017;51.514;-0.178;2023-01-29T01:10:26;102613.81;;;8.41;83.84
43420;BME280;29017;51.514;-0.178;2023-01-29T01:15:22;102602.47;;;8.41;84.29
43420;BME280;29017;51.514;-0.178;2023-01-29T01:17:51;102599.94;;;8.39;84.39
43420;BME280;29017;51.514;-0.178;2023-01-29T01:20:18;102599.28;;;8.36;84.47
43420;BME280;29017;51.514;-0.178;2023-01-29T01:22:45;102598.44;;;8.35;85.18
43420;BME280;29017;51.514;-0.178;2023-01-29T01:25:11;102596.00;;;8.32;85.63
43420;BME280;29017;51.514;-0.178;2023-01-29T01:27:38;102594.56;;;8.27;84.90
43420;BME280;29017;51.514;-0.178;2023-01-29T01:30:08;102583.25;;;8.26;85.22
43420;BME280;29017;51.514;-0.178;2023-01-29T01:32:35;102585.78;;;8.28;85.14
43420;BME280;29017;51.514;-0.178;2023-01-29T01:35:02;102584.94;;;8.27;84.95
43420;BME280;29017;51.514;-0.178;2023-01-29T01:37:29;102582.41;;;8.26;84.88
43420;BME280;29017;51.514;-0.178;2023-01-29T01:39:56;102582.41;;;8.26;84.92
43420;BME280;29017;51.514;-0.178;2023-01-29T01:42:27;102582.59;;;8.23;85.06
43420;BME280;29017;51.514;-0.178;2023-01-29T01:44:57;102579.97;;;8.23;84.96
43420;BME280;29017;51.514;-0.178;2023-01-29T01:47:29;102592.31;;;8.21;85.20
43420;BME280;29017;51.514;-0.178;2023-01-29T01:49:58;102585.59;;;8.16;84.30
43420;BME280;29017;51.514;-0.178;2023-01-29T01:52:28;102592.53;;;8.18;84.25
43420;BME280;29017;51.514;-0.178;2023-01-29T01:54:57;102592.78;;;8.13;84.13
43420;BME280;29017;51.514;-0.178;2023-01-29T01:57:24;102598.13;;;8.11;84.03
43420;BME280;29017;51.514;-0.178;2023-01-29T01:59:55;102589.34;;;8.12;83.83
43420;BME280;29017;51.514;-0.178;2023-01-29T02:02:23;102598.03;;;8.13;83.99
43420;BME280;29017;51.514;-0.178;2023-01-29T02:04:59;102599.72;;;8.14;84.28
43420;BME280;29017;51.514;-0.178;2023-01-29T02:07:39;102599.91;;;8.11;84.09
43420;BME280;29017;51.514;-0.178;2023-01-29T02:10:17;102597.66;;;8.05;84.55
43420;BME280;29017;51.514;-0.178;2023-01-29T02:12:44;102600.28;;;8.05;84.21
43420;BME280;29017;51.514;-0.178;2023-01-29T02:15:11;102596.06;;;8.02;83.86
43420;BME280;29017;51.514;-0.178;2023-01-29T02:17:38;102586.31;;;8.04;84.88
43420;BME280;29017;51.514;-0.178;2023-01-29T02:20:11;102590.63;;;8.05;85.38
43420;BME280;29017;51.514;-0.178;2023-01-29T02:30:37;102588.56;;;8.10;84.38
43420;BME280;29017;51.514;-0.178;2023-01-29T02:35:44;102588.94;;;8.18;87.32
43420;BME280;29017;51.514;-0.178;2023-01-29T02:43:20;102595.31;;;8.14;83.76
43420;BME280;29017;51.514;-0.178;2023-01-29T02:45:57;102598.03;;;8.13;83.29
43420;BME280;29017;51.514;-0.178;2023-01-29T02:48:28;102604.09;;;8.13;83.02
43420;BME280;29017;51.514;-0.178;2023-01-29T02:51:01;102599.91;;;8.11;83.03
43420;BME280;29017;51.514;-0.178;2023-01-29T02:56:02;102606.94;;;8.10;83.28
43420;BME280;29017;51.514;-0.178;2023-01-29T03:01:14;102591.41;;;8.07;83.63
43420;BME280;29017;51.514;-0.178;2023-01-29T03:03:45;102589.72;;;8.06;84.36
43420;BME280;29017;51.514;-0.178;2023-01-29T03:06:16;102588.00;;;8.05;84.49
43420;BME280;29017;51.514;-0.178;2023-01-29T03:08:50;102593.06;;;8.08;84.39
43420;BME280;29017;51.514;-0.178;2023-01-29T03:11:19;102581.72;;;8.08;83.98
43420;BME280;29017;51.514;-0.178;2023-01-29T03:13:48;102580.91;;;8.07;83.80
43420;BME280;29017;51.514;-0.178;2023-01-29T03:18:55;102565.06;;;8.09;83.62
43420;BME280;29017;51.514;-0.178;2023-01-29T03:21:28;102563.50;;;8.06;83.86
43420;BME280;29017;51.514;-0.178;2023-01-29T03:24:20;102556.66;;;8.04;84.55
43420;BME280;29017;51.514;-0.178;2023-01-29T03:27:00;102554.88;;;8.04;85.16
43420;BME280;29017;51.514;-0.178;2023-01-29T03:29:37;102554.88;;;8.04;85.23
43420;BME280;29017;51.514;-0.178;2023-01-29T03:32:16;102552.25;;;8.04;85.43
43420;BME280;29017;51.514;-0.178;2023-01-29T03:34:45;102547.09;;;8.03;84.84
43420;BME280;29017;51.514;-0.178;2023-01-29T03:37:15;102539.34;;;8.01;84.75
43420;BME280;29017;51.514;-0.178;2023-01-29T03:39:45;102536.72;;;8.01;84.85
43420;BME280;29017;51.514;-0.178;2023-01-29T03:44:52;102543.81;;;7.99;84.73
43420;BME280;29017;51.514;-0.178;2023-01-29T03:47:21;102541.19;;;7.99;84.80
43420;BME280;29017;51.514;-0.178;2023-01-29T03:49:56;102536.72;;;8.01;85.04
43420;BME280;29017;51.514;-0.178;2023-01-29T03:52:27;102542.03;;;8.00;85.55
43420;BME280;29017;51.514;-0.178;2023-01-29T03:55:03;102535.88;;;8.01;86.34
43420;BME280;29017;51.514;-0.178;2023-01-29T03:57:40;102542.88;;;8.00;86.24
43420;BME280;29017;51.514;-0.178;2023-01-29T04:05:16;102534.28;;;7.98;85.63
43420;BME280;29017;51.514;-0.178;2023-01-29T04:07:45;102533.34;;;7.99;86.39
43420;BME280;29017;51.514;-0.178;2023-01-29T04:10:16;102523.69;;;8.00;87.35
43420;BME280;29017;51.514;-0.178;2023-01-29T04:12:46;102520.06;;;8.02;87.55
43420;BME280;29017;51.514;-0.178;2023-01-29T04:15:14;102523.50;;;8.03;86.75
43420;BME280;29017;51.514;-0.178;2023-01-29T04:17:42;102529.69;;;8.02;85.97
43420;BME280;29017;51.514;-0.178;2023-01-29T04:20:11;102516.59;;;8.02;85.83
43420;BME280;29017;51.514;-0.178;2023-01-29T04:22:38;102518.16;;;8.04;85.57
43420;BME280;29017;51.514;-0.178;2023-01-29T04:25:07;102520.78;;;8.04;85.65
43420;BME280;29017;51.514;-0.178;2023-01-29T04:27:43;102522.56;;;8.04;85.90
43420;BME280;29017;51.514;-0.178;2023-01-29T04:30:17;102526.97;;;8.03;86.36
43420;BME280;29017;51.514;-0.178;2023-01-29T04:35:28;102527.16;;;8.00;86.34
43420;BME280;29017;51.514;-0.178;2023-01-29T04:40:37;102519.38;;;7.99;87.07
43420;BME280;29017;51.514;-0.178;2023-01-29T04:43:12;102512.38;;;7.99;87.79
43420;BME280;29017;51.514;-0.178;2023-01-29T04:55:50;102503.78;;;7.97;86.13
43420;BME280;29017;51.514;-0.178;2023-01-29T04:58:25;102501.16;;;7.97;86.43
43420;BME280;29017;51.514;-0.178;2023-01-29T05:00:54;102502.81;;;7.98;86.50
43420;BME280;29017;51.514;-0.178;2023-01-29T05:03:23;102501.97;;;7.98;86.60
43420;BME280;29017;51.514;-0.178;2023-01-29T05:05:51;102499.19;;;8.01;88.01
43420;BME280;29017;51.514;-0.178;2023-01-29T05:08:20;102480.75;;;8.02;88.21
43420;BME280;29017;51.514;-0.178;2023-01-29T05:10:48;102478.94;;;8.03;88.65
43420;BME280;29017;51.514;-0.178;2023-01-29T05:13:16;102480.00;;;8.00;87.62
43420;BME280;29017;51.514;-0.178;2023-01-29T05:15:47;102487.22;;;7.97;86.94
43420;BME280;29017;51.514;-0.178;2023-01-29T05:18:15;102478.50;;;7.96;87.59
43420;BME280;29017;51.514;-0.178;2023-01-29T05:20:42;102476.81;;;7.95;87.72
43420;BME280;29017;51.514;-0.178;2023-01-29T05:23:17;102474.28;;;7.94;87.72
43420;BME280;29017;51.514;-0.178;2023-01-29T05:25:45;102463.63;;;7.97;87.93
43420;BME280;29017;51.514;-0.178;2023-01-29T05:28:12;102461.00;;;7.97;88.13
43420;BME280;29017;51.514;-0.178;2023-01-29T05:30:45;102459.31;;;7.96;87.71
43420;BME280;29017;51.514;-0.178;2023-01-29T05:33:13;102468.03;;;7.96;87.03
43420;BME280;29017;51.514;-0.178;2023-01-29T05:35:40;102462.78;;;7.96;86.89
43420;BME280;29017;51.514;-0.178;2023-01-29T05:38:08;102461.09;;;7.95;86.96
43420;BME280;29017;51.514;-0.178;2023-01-29T05:40:35;102450.91;;;7.91;86.74
43420;BME280;29017;51.514;-0.178;2023-01-29T05:43:02;102446.78;;;7.87;86.58
43420;BME280;29017;51.514;-0.178;2023-01-29T05:45:29;102450.13;;;7.89;87.67
43420;BME280;29017;51.514;-0.178;2023-01-29T05:47:57;102446.59;;;7.90;88.22
43420;BME280;29017;51.514;-0.178;2023-01-29T05:50:24;102440.88;;;7.83;87.33
43420;BME280;29017;51.514;-0.178;2023-01-29T05:55:27;102441.84;;;7.82;87.55
43420;BME280;29017;51.514;-0.178;2023-01-29T05:57:55;102448.56;;;7.86;88.26
43420;BME280;29017;51.514;-0.178;2023-01-29T06:00:21;102434.63;;;7.86;88.05
43420;BME280;29017;51.514;-0.178;2023-01-29T06:02:48;102436.31;;;7.87;87.38
43420;BME280;29017;51.514;-0.178;2023-01-29T06:05:15;102433.69;;;7.87;87.51
43420;BME280;29017;51.514;-0.178;2023-01-29T06:07:42;102425.72;;;7.88;87.88
43420;BME280;29017;51.514;-0.178;2023-01-29T06:10:11;102424.97;;;7.86;87.25
43420;BME280;29017;51.514;-0.178;2023-01-29T06:12:39;102422.25;;;7.88;87.31
43420;BME280;29017;51.514;-0.178;2023-01-29T06:15:06;102421.44;;;7.87;86.76
43420;BME280;29017;51.514;-0.178;2023-01-29T06:17:34;102422.16;;;7.89;87.15
43420;BME280;29017;51.514;-0.178;2023-01-29T06:20:01;102413.16;;;7.93;87.34
43420;BME280;29017;51.514;-0.178;2023-01-29T06:22:27;102423.63;;;7.93;87.23
43420;BME280;29017;51.514;-0.178;2023-01-29T06:24:54;102417.56;;;7.93;86.98
43420;BME280;29017;51.514;-0.178;2023-01-29T06:27:21;102415.59;;;7.96;87.88
43420;BME280;29017;51.514;-0.178;2023-01-29T06:29:48;102425.97;;;7.98;87.86
43420;BME280;29017;51.514;-0.178;2023-01-29T06:32:14;102433.94;;;7.96;87.35
43420;BME280;29017;51.514;-0.178;2023-01-29T06:34:41;102425.63;;;7.90;85.80
43420;BME280;29017;51.514;-0.178;2023-01-29T06:37:08;102427.69;;;7.85;85.68
43420;BME280;29017;51.514;-0.178;2023-01-29T06:39:34;102432.16;;;7.83;85.82
43420;BME280;29017;51.514;-0.178;2023-01-29T06:42:01;102429.28;;;7.87;86.52
43420;BME280;29017;51.514;-0.178;2023-01-29T06:44:28;102433.41;;;7.91;85.94
43420;BME280;29017;51.514;-0.178;2023-01-29T06:46:55;102425.53;;;7.91;85.56
43420;BME280;29017;51.514;-0.178;2023-01-29T06:49:21;102429.09;;;7.90;84.79
43420;BME280;29017;51.514;-0.178;2023-01-29T06:51:48;102436.19;;;7.88;84.94
43420;BME280;29017;51.514;-0.178;2023-01-29T06:54:15;102432.72;;;7.88;85.35
43420;BME280;29017;51.514;-0.178;2023-01-29T06:56:42;102415.91;;;7.92;85.93
43420;BME280;29017;51.514;-0.178;2023-01-29T06:59:09;102415.13;;;7.90;85.71
43420;BME280;29017;51.514;-0.178;2023-01-29T07:01:37;102410.41;;;7.82;84.70
43420;BME280;29017;51.514;-0.178;2023-01-29T07:04:06;102411.22;;;7.83;86.09
43420;BME280;29017;51.514;-0.178;2023-01-29T07:06:33;102413.44;;;7.89;86.03
43420;BME280;29017;51.514;-0.178;2023-01-29T07:09:00;102406.63;;;7.86;84.59
43420;BME280;29017;51.514;-0.178;2023-01-29T07:11:27;102404.19;;;7.83;84.19
43420;BME280;29017;51.514;-0.178;2023-01-29T07:13:53;102398.78;;;7.86;84.48
43420;BME280;29017;51.514;-0.178;2023-01-29T07:16:21;102403.91;;;7.88;84.63
43420;BME280;29017;51.514;-0.178;2023-01-29T07:18:48;102403.63;;;7.92;84.61
43420;BME280;29017;51.514;-0.178;2023-01-29T07:21:15;102410.38;;;7.96;85.13
43420;BME280;29017;51.514;-0.178;2023-01-29T07:23:42;102413.72;;;7.98;84.26
43420;BME280;29017;51.514;-0.178;2023-01-29T07:26:09;102402.94;;;8.03;84.14
43420;BME280;29017;51.514;-0.178;2023-01-29T07:28:36;102402.84;;;8.04;84.17
43420;BME280;29017;51.514;-0.178;2023-01-29T07:31:03;102396.75;;;8.04;83.51
43420;BME280;29017;51.514;-0.178;2023-01-29T07:33:30;102390.88;;;8.00;83.07
43420;BME280;29017;51.514;-0.178;2023-01-29T07:35:57;102392.88;;;7.97;82.91
43420;BME280;29017;51.514;-0.178;2023-01-29T07:38:24;102386.03;;;7.94;83.10
43420;BME280;29017;51.514;-0.178;2023-01-29T07:40:51;102390.41;;;7.94;83.59
43420;BME280;29017;51.514;-0.178;2023-01-29T07:43:18;102388.63;;;7.94;83.50
43420;BME280;29017;51.514;-0.178;2023-01-29T07:45:45;102386.03;;;7.94;83.43
43420;BME280;29017;51.514;-0.178;2023-01-29T07:48:12;102388.00;;;7.91;82.85
43420;BME280;29017;51.514;-0.178;2023-01-29T07:50:39;102379.09;;;7.93;83.83
43420;BME280;29017;51.514;-0.178;2023-01-29T07:53:06;102387.63;;;7.97;84.30
43420;BME280;29017;51.514;-0.178;2023-01-29T07:55:33;102382.25;;;7.98;84.15
43420;BME280;29017;51.514;-0.178;2023-01-29T07:58:01;102387.41;;;8.00;83.90
43420;BME280;29017;51.514;-0.178;2023-01-29T08:00:28;102394.13;;;8.04;84.44
43420;BME280;29017;51.514;-0.178;2023-01-29T08:05:32;102392.91;;;8.09;84.82
43420;BME280;29017;51.514;-0.178;2023-01-29T08:07:59;102383.91;;;8.13;84.46
43420;BME280;29017;51.514;-0.178;2023-01-29T08:10:33;102378.34;;;8.18;84.72
43420;BME280;29017;51.514;-0.178;2023-01-29T08:13:00;102397.47;;;8.20;83.88
43420;BME280;29017;51.514;-0.178;2023-01-29T08:15:28;102386.78;;;8.23;84.02
43420;BME280;29017;51.514;-0.178;2023-01-29T08:17:55;102389.22;;;8.26;84.53
43420;BME280;29017;51.514;-0.178;2023-01-29T08:20:24;102385.66;;;8.27;83.47
43420;BME280;29017;51.514;-0.178;2023-01-29T08:25:27;102382.56;;;8.35;84.08
43420;BME280;29017;51.514;-0.178;2023-01-29T08:27:55;102387.25;;;8.30;82.98
43420;BME280;29017;51.514;-0.178;2023-01-29T08:30:25;102389.78;;;8.31;82.61
43420;BME280;29017;51.514;-0.178;2023-01-29T08:32:51;102377.53;;;8.32;82.65
43420;BME280;29017;51.514;-0.178;2023-01-29T08:35:18;102386.31;;;8.31;82.71
43420;BME280;29017;51.514;-0.178;2023-01-29T08:40:25;102376.16;;;8.39;83.62
43420;BME280;29017;51.514;-0.178;2023-01-29T08:42:56;102380.38;;;8.41;83.00
43420;BME280;29017;51.514;-0.178;2023-01-29T08:45:25;102385.63;;;8.41;83.13
43420;BME280;29017;51.514;-0.178;2023-01-29T08:47:52;102384.78;;;8.41;82.81
43420;BME280;29017;51.514;-0.178;2023-01-29T08:50:19;102377.94;;;8.38;82.24
43420;BME280;29017;51.514;-0.178;2023-01-29T08:52:45;102380.78;;;8.35;82.61
43420;BME280;29017;51.514;-0.178;2023-01-29T08:55:12;102380.47;;;8.40;83.09
43420;BME280;29017;51.514;-0.178;2023-01-29T08:57:40;102376.91;;;8.41;82.97
43420;BME280;29017;51.514;-0.178;2023-01-29T09:00:07;102376.91;;;8.41;82.98
43420;BME280;29017;51.514;-0.178;2023-01-29T09:02:34;102376.69;;;8.44;83.38
43420;BME280;29017;51.514;-0.178;2023-01-29T09:05:01;102376.06;;;8.40;82.69
43420;BME280;29017;51.514;-0.178;2023-01-29T09:07:28;102375.44;;;8.37;82.62
43420;BME280;29017;51.514;-0.178;2023-01-29T09:09:55;102371.22;;;8.34;82.17
43420;BME280;29017;51.514;-0.178;2023-01-29T09:12:22;102370.59;;;8.31;82.49
43420;BME280;29017;51.514;-0.178;2023-01-29T09:14:49;102371.97;;;8.36;83.49
43420;BME280;29017;51.514;-0.178;2023-01-29T09:17:15;102362.41;;;8.35;83.46
43420;BME280;29017;51.514;-0.178;2023-01-29T09:19:42;102371.88;;;8.38;83.54
43420;BME280;29017;51.514;-0.178;2023-01-29T09:22:09;102371.88;;;8.38;83.36
43420;BME280;29017;51.514;-0.178;2023-01-29T09:24:37;102369.06;;;8.41;84.14
43420;BME280;29017;51.514;-0.178;2023-01-29T09:27:03;102373.53;;;8.39;83.72
43420;BME280;29017;51.514;-0.178;2023-01-29T09:29:31;102368.28;;;8.39;83.67
43420;BME280;29017;51.514;-0.178;2023-01-29T09:32:02;102366.63;;;8.38;83.68
43420;BME280;29017;51.514;-0.178;2023-01-29T09:34:28;102367.28;;;8.41;84.48
43420;BME280;29017;51.514;-0.178;2023-01-29T09:36:55;102372.50;;;8.41;84.17
43420;BME280;29017;51.514;-0.178;2023-01-29T09:39:22;102363.81;;;8.41;84.52
43420;BME280;29017;51.514;-0.178;2023-01-29T09:41:55;102369.91;;;8.41;84.44
43420;BME280;29017;51.514;-0.178;2023-01-29T09:44:28;102360.03;;;8.45;84.83
43420;BME280;29017;51.514;-0.178;2023-01-29T09:46:58;102368.34;;;8.51;84.65
43420;BME280;29017;51.514;-0.178;2023-01-29T09:49:30;102363.19;;;8.50;84.64
43420;BME280;29017;51.514;-0.178;2023-01-29T09:52:00;102369.19;;;8.52;84.31
43420;BME280;29017;51.514;-0.178;2023-01-29T09:57:06;102367.41;;;8.52;84.71
43420;BME280;29017;51.514;-0.178;2023-01-29T09:59:37;102362.78;;;8.56;85.15
43420;BME280;29017;51.514;-0.178;2023-01-29T10:09:58;102359.94;;;8.59;84.72
43420;BME280;29017;51.514;-0.178;2023-01-29T10:22:55;102354.44;;;8.76;85.74
43420;BME280;29017;51.514;-0.178;2023-01-29T10:25:27;102355.19;;;8.78;85.37
43420;BME280;29017;51.514;-0.178;2023-01-29T10:27:56;102342.69;;;8.82;85.87
43420;BME280;29017;51.514;-0.178;2023-01-29T10:30:28;102343.94;;;8.89;86.21
43420;BME280;29017;51.514;-0.178;2023-01-29T10:32:58;102350.78;;;8.91;85.99
43420;BME280;29017;51.514;-0.178;2023-01-29T10:35:28;102354.34;;;8.90;85.95
43420;BME280;29017;51.514;-0.178;2023-01-29T10:37:57;102346.88;;;8.84;86.33
43420;BME280;29017;51.514;-0.178;2023-01-29T10:43:07;102348.56;;;8.85;87.39
43420;BME280;29017;51.514;-0.178;2023-01-29T10:45:40;102337.03;;;8.88;87.45
43420;BME280;29017;51.514;-0.178;2023-01-29T10:58:53;102310.47;;;8.92;87.53
43420;BME280;29017;51.514;-0.178;2023-01-29T11:01:20;102309.72;;;8.90;87.21
43420;BME280;29017;51.514;-0.178;2023-01-29T11:03:53;102309.63;;;8.92;87.50
43420;BME280;29017;51.514;-0.178;2023-01-29T11:06:22;102301.53;;;8.95;87.97
43420;BME280;29017;51.514;-0.178;2023-01-29T11:11:19;102291.34;;;8.90;87.75
43420;BME280;29017;51.514;-0.178;2023-01-29T11:13:51;102291.16;;;8.93;88.18
43420;BME280;29017;51.514;-0.178;2023-01-29T11:16:20;102287.47;;;8.96;88.85
43420;BME280;29017;51.514;-0.178;2023-01-29T11:18:51;102285.56;;;8.98;88.80
43420;BME280;29017;51.514;-0.178;2023-01-29T11:21:20;102281.78;;;9.02;89.00
43420;BME280;29017;51.514;-0.178;2023-01-29T11:23:48;102278.09;;;9.05;88.88
43420;BME280;29017;51.514;-0.178;2023-01-29T11:26:18;102278.00;;;9.06;88.60
43420;BME280;29017;51.514;-0.178;2023-01-29T11:28:48;102270.22;;;9.05;88.35
43420;BME280;29017;51.514;-0.178;2023-01-29T11:33:47;102259.28;;;9.11;88.57
43420;BME280;29017;51.514;-0.178;2023-01-29T11:36:20;102260.44;;;9.19;88.98
43420;BME280;29017;51.514;-0.178;2023-01-29T11:38:56;102242.69;;;9.23;88.75
43420;BME280;29017;51.514;-0.178;2023-01-29T11:41:31;102257.38;;;9.25;88.67
43420;BME280;29017;51.514;-0.178;2023-01-29T11:46:44;102241.06;;;9.33;88.60
43420;BME280;29017;51.514;-0.178;2023-01-29T11:49:20;102228.88;;;9.32;88.27
43420;BME280;29017;51.514;-0.178;2023-01-29T11:51:50;102226.25;;;9.32;88.16
43420;BME280;29017;51.514;-0.178;2023-01-29T11:54:18;102217.66;;;9.30;88.07
43420;BME280;29017;51.514;-0.178;2023-01-29T11:56:46;102210.75;;;9.29;88.38
43420;BME280;29017;51.514;-0.178;2023-01-29T11:59:20;102199.25;;;9.30;88.51
43420;BME280;29017;51.514;-0.178;2023-01-29T12:01:53;102198.97;;;9.34;89.16
43420;BME280;29017;51.514;-0.178;2023-01-29T12:04:21;102196.19;;;9.36;89.13
43420;BME280;29017;51.514;-0.178;2023-01-29T12:06:49;102184.00;;;9.35;88.71
43420;BME280;29017;51.514;-0.178;2023-01-29T12:09:19;102180.09;;;9.40;89.33
43420;BME280;29017;51.514;-0.178;2023-01-29T12:11:47;102175.47;;;9.44;89.60
43420;BME280;29017;51.514;-0.178;2023-01-29T12:19:33;102165.56;;;9.71;89.89
43420;BME280;29017;51.514;-0.178;2023-01-29T12:22:03;102166.88;;;9.77;89.47
43420;BME280;29017;51.514;-0.178;2023-01-29T12:24:34;102157.81;;;9.81;89.67
43420;BME280;29017;51.514;-0.178;2023-01-29T12:39:45;102136.47;;;9.97;88.02
43420;BME280;29017;51.514;-0.178;2023-01-29T12:42:16;102130.38;;;9.96;87.46
43420;BME280;29017;51.514;-0.178;2023-01-29T12:47:24;102114.03;;;10.04;88.13
43420;BME280;29017;51.514;-0.178;2023-01-29T12:49:54;102104.69;;;10.00;87.20
43420;BME280;29017;51.514;-0.178;2023-01-29T12:52:32;102091.56;;;10.00;87.50
43420;BME280;29017;51.514;-0.178;2023-01-29T12:55:03;102104.34;;;10.04;88.01
43420;BME280;29017;51.514;-0.178;2023-01-29T13:00:02;102083.53;;;10.01;87.95
43420;BME280;29017;51.514;-0.178;2023-01-29T13:02:34;102075.28;;;10.06;88.37
43420;BME280;29017;51.514;-0.178;2023-01-29T13:07:32;102059.31;;;10.31;92.02
43420;BME280;29017;51.514;-0.178;2023-01-29T13:10:03;102068.03;;;10.32;90.21
43420;BME280;29017;51.514;-0.178;2023-01-29T13:12:32;102051.06;;;10.24;87.41
43420;BME280;29017;51.514;-0.178;2023-01-29T13:15:03;102047.81;;;10.21;87.97
43420;BME280;29017;51.514;-0.178;2023-01-29T13:17:32;102035.03;;;10.16;87.93
43420;BME280;29017;51.514;-0.178;2023-01-29T13:20:04;102039.78;;;10.11;87.66
43420;BME280;29017;51.514;-0.178;2023-01-29T13:22:36;102021.38;;;10.11;87.51
43420;BME280;29017;51.514;-0.178;2023-01-29T13:25:05;102023.69;;;10.16;88.55
43420;BME280;29017;51.514;-0.178;2023-01-29T13:27:32;102021.66;;;10.19;88.36
43420;BME280;29017;51.514;-0.178;2023-01-29T13:30:00;102023.34;;;10.20;88.38
43420;BME280;29017;51.514;-0.178;2023-01-29T13:32:28;102017.09;;;10.21;88.78
43420;BME280;29017;51.514;-0.178;2023-01-29T13:34:59;102005.41;;;10.25;89.09
43420;BME280;29017;51.514;-0.178;2023-01-29T13:39:54;102008.63;;;10.29;88.01
43420;BME280;29017;51.514;-0.178;2023-01-29T13:44:52;101988.28;;;10.31;87.70
43420;BME280;29017;51.514;-0.178;2023-01-29T13:47:21;101980.28;;;10.33;87.80
43420;BME280;29017;51.514;-0.178;2023-01-29T14:00:08;101978.84;;;10.40;88.33
43420;BME280;29017;51.514;-0.178;2023-01-29T14:07:55;101967.72;;;10.36;87.97
43420;BME280;29017;51.514;-0.178;2023-01-29T14:10:22;101968.53;;;10.37;88.50
43420;BME280;29017;51.514;-0.178;2023-01-29T14:12:50;101961.47;;;10.37;88.68
43420;BME280;29017;51.514;-0.178;2023-01-29T14:20:28;101951.50;;;10.52;89.85
43420;BME280;29017;51.514;-0.178;2023-01-29T14:23:18;101953.81;;;10.56;90.22
43420;BME280;29017;51.514;-0.178;2023-01-29T14:25:47;101950.78;;;10.61;89.17
43420;BME280;29017;51.514;-0.178;2023-01-29T14:28:15;101957.34;;;10.66;88.30
43420;BME280;29017;51.514;-0.178;2023-01-29T14:30:45;101959.97;;;10.66;87.68
43420;BME280;29017;51.514;-0.178;2023-01-29T14:33:21;101956.25;;;10.69;87.52
43420;BME280;29017;51.514;-0.178;2023-01-29T14:35:49;101956.38;;;10.67;87.15
43420;BME280;29017;51.514;-0.178;2023-01-29T14:38:17;101955.41;;;10.68;86.99
43420;BME280;29017;51.514;-0.178;2023-01-29T14:40:44;101955.88;;;10.73;87.47
43420;BME280;29017;51.514;-0.178;2023-01-29T14:43:15;101943.81;;;10.71;87.51
43420;BME280;29017;51.514;-0.178;2023-01-29T14:45:46;101946.19;;;10.74;87.64
43420;BME280;29017;51.514;-0.178;2023-01-29T14:48:18;101949.28;;;10.79;87.76
43420;BME280;29017;51.514;-0.178;2023-01-29T14:58:51;101932.97;;;10.85;87.57
43420;BME280;29017;51.514;-0.178;2023-01-29T15:01:24;101930.22;;;10.87;87.51
43420;BME280;29017;51.514;-0.178;2023-01-29T15:03:52;101928.28;;;10.89;87.13
43420;BME280;29017;51.514;-0.178;2023-01-29T15:06:27;101923.59;;;10.92;87.94
43420;BME280;29017;51.514;-0.178;2023-01-29T15:09:03;101923.22;;;10.97;87.60
43420;BME280;29017;51.514;-0.178;2023-01-29T15:11:34;101924.88;;;10.98;87.42
43420;BME280;29017;51.514;-0.178;2023-01-29T15:14:05;101916.97;;;10.98;87.14
43420;BME280;29017;51.514;-0.178;2023-01-29T15:16:37;101910.75;;;10.99;87.04
43420;BME280;29017;51.514;-0.178;2023-01-29T15:19:10;101917.69;;;11.00;87.36
43420;BME280;29017;51.514;-0.178;2023-01-29T15:21:38;101914.94;;;11.01;87.71
43420;BME280;29017;51.514;-0.178;2023-01-29T15:24:05;101916.72;;;11.01;88.44
43420;BME280;29017;51.514;-0.178;2023-01-29T15:26:33;101924.63;;;11.01;88.75
43420;BME280;29017;51.514;-0.178;2023-01-29T15:29:01;101931.56;;;11.02;89.25
43420;BME280;29017;51.514;-0.178;2023-01-29T15:31:30;101931.69;;;11.00;89.42
43420;BME280;29017;51.514;-0.178;2023-01-29T15:33:57;101920.22;;;11.01;90.68
43420;BME280;29017;51.514;-0.178;2023-01-29T15:36:30;101925.47;;;11.01;90.97
43420;BME280;29017;51.514;-0.178;2023-01-29T15:41:33;101906.44;;;10.98;91.30